sensor_id;sensor_type;location;lat;lon;timestamp;pressure;altitude;pressure_sealevel;temperature;humidity
71716;BME280;59568;52.128;5.434;2022-10-29T00:00:17;102341.16;;;11.80;89.96
71716;BME280;59568;52.128;5.434;2022-10-29T00:02:44;102340.09;;;11.81;90.38
71716;BME280;59568;52.128;5.434;2022-10-29T00:05:11;102334.63;;;11.77;90.34
71716;BME280;59568;52.128;5.434;2022-10-29T00:07:38;102334.84;;;11.76;90.05
71716;BME280;59568;52.128;5.434;2022-10-29T00:10:05;102320.72;;;11.72;90.07
71716;BME280;59568;52.128;5.434;2022-10-29T00:12:32;102319.88;;;11.66;90.19
71716;BME280;59568;52.128;5.434;2022-10-29T00:14:59;102323.81;;;11.64;89.96
71716;BME280;59568;52.128;5.434;2022-10-29T00:17:26;102317.50;;;11.59;89.81
71716;BME280;59568;52.128;5.434;2022-10-29T00:19:53;102319.59;;;11.57;89.94
71716;BME280;59568;52.128;5.434;2022-10-29T00:22:20;102325.34;;;11.54;89.88
71716;BME280;59568;52.128;5.434;2022-10-29T00:24:47;102316.41;;;11.50;89.86
71716;BME280;59568;52.128;5.434;2022-10-29T00:27:14;102317.19;;;11.51;89.82
71716;BME280;59568;52.128;5.434;2022-10-29T00:29:41;102323.50;;;11.50;89.92
71716;BME280;59568;52.128;5.434;2022-10-29T00:32:07;102321.91;;;11.49;89.88
71716;BME280;59568;52.128;5.434;2022-10-29T00:34:36;102320.59;;;11.46;89.94
71716;BME280;59568;52.128;5.434;2022-10-29T00:37:03;102321.13;;;11.48;89.95
71716;BME280;59568;52.128;5.434;2022-10-29T00:39:31;102316.94;;;11.47;90.08
71716;BME280;59568;52.128;5.434;2022-10-29T00:42:01;102309.09;;;11.47;90.21
71716;BME280;59568;52.128;5.434;2022-10-29T00:44:33;102310.91;;;11.47;90.38
71716;BME280;59568;52.128;5.434;2022-10-29T00:49:44;102299.13;;;11.44;90.24
71716;BME280;59568;52.128;5.434;2022-10-29T00:52:14;102302.25;;;11.41;90.42
71716;BME280;59568;52.128;5.434;2022-10-29T00:54:42;102298.81;;;11.40;90.29
71716;BME280;59568;52.128;5.434;2022-10-29T00:57:18;102294.91;;;11.38;90.57
71716;BME280;59568;52.128;5.434;2022-10-29T00:59:47;102294.13;;;11.37;90.90
71716;BME280;59568;52.128;5.434;2022-10-29T01:02:14;102290.97;;;11.35;90.62
71716;BME280;59568;52.128;5.434;2022-10-29T01:04:42;102285.97;;;11.34;90.67
71716;BME280;59568;52.128;5.434;2022-10-29T01:07:11;102296.44;;;11.34;90.90
71716;BME280;59568;52.128;5.434;2022-10-29T01:09:38;102295.91;;;11.32;90.60
71716;BME280;59568;52.128;5.434;2022-10-29T01:12:25;102291.47;;;11.32;90.67
71716;BME280;59568;52.128;5.434;2022-10-29T01:23:19;102281.72;;;11.23;90.63
71716;BME280;59568;52.128;5.434;2022-10-29T01:36:41;102267.03;;;11.11;90.51
71716;BME280;59568;52.128;5.434;2022-10-29T01:39:44;102260.50;;;11.09;90.33
71716;BME280;59568;52.128;5.434;2022-10-29T01:42:13;102250.28;;;11.07;90.48
71716;BME280;59568;52.128;5.434;2022-10-29T01:47:13;102263.84;;;11.04;90.56
71716;BME280;59568;52.128;5.434;2022-10-29T01:49:43;102255.44;;;10.97;90.45
71716;BME280;59568;52.128;5.434;2022-10-29T01:52:14;102247.56;;;10.92;90.42
71716;BME280;59568;52.128;5.434;2022-10-29T01:54:44;102242.84;;;10.89;90.30
71716;BME280;59568;52.128;5.434;2022-10-29T01:57:38;102243.34;;;10.86;90.26
71716;BME280;59568;52.128;5.434;2022-10-29T02:00:11;102241.50;;;10.81;90.26
71716;BME280;59568;52.128;5.434;2022-10-29T02:05:34;102231.75;;;10.76;90.39
71716;BME280;59568;52.128;5.434;2022-10-29T02:08:17;102235.44;;;10.75;90.43
71716;BME280;59568;52.128;5.434;2022-10-29T02:10:52;102241.97;;;10.73;90.21
71716;BME280;59568;52.128;5.434;2022-10-29T02:13:24;102238.81;;;10.71;90.37
71716;BME280;59568;52.128;5.434;2022-10-29T02:15:55;102238.53;;;10.72;90.42
71716;BME280;59568;52.128;5.434;2022-10-29T02:18:24;102231.75;;;10.71;90.61
71716;BME280;59568;52.128;5.434;2022-10-29T02:20:51;102229.66;;;10.73;90.69
71716;BME280;59568;52.128;5.434;2022-10-29T02:23:18;102226.28;;;10.73;90.99
71716;BME280;59568;52.128;5.434;2022-10-29T02:25:45;102242.75;;;10.73;91.27
71716;BME280;59568;52.128;5.434;2022-10-29T02:28:12;102242.50;;;10.75;91.52
71716;BME280;59568;52.128;5.434;2022-10-29T02:30:39;102233.31;;;10.72;91.48
71716;BME280;59568;52.128;5.434;2022-10-29T02:33:05;102243.28;;;10.75;91.69
71716;BME280;59568;52.128;5.434;2022-10-29T02:35:32;102244.28;;;10.74;91.56
71716;BME280;59568;52.128;5.434;2022-10-29T02:37:59;102248.75;;;10.74;91.48
71716;BME280;59568;52.128;5.434;2022-10-29T02:40:26;102246.38;;;10.72;91.32
71716;BME280;59568;52.128;5.434;2022-10-29T02:42:53;102243.22;;;10.70;91.23
71716;BME280;59568;52.128;5.434;2022-10-29T02:45:20;102244.28;;;10.69;90.99
71716;BME280;59568;52.128;5.434;2022-10-29T02:47:47;102226.47;;;10.66;91.07
71716;BME280;59568;52.128;5.434;2022-10-29T02:50:14;102226.47;;;10.66;91.00
71716;BME280;59568;52.128;5.434;2022-10-29T02:52:41;102207.38;;;10.66;91.21
71716;BME280;59568;52.128;5.434;2022-10-29T02:55:08;102201.38;;;10.65;91.31
71716;BME280;59568;52.128;5.434;2022-10-29T02:57:35;102212.38;;;10.67;91.55
71716;BME280;59568;52.128;5.434;2022-10-29T03:00:02;102207.94;;;10.68;91.27
71716;BME280;59568;52.128;5.434;2022-10-29T03:02:29;102208.69;;;10.68;91.41
71716;BME280;59568;52.128;5.434;2022-10-29T03:04:56;102208.22;;;10.71;91.46
71716;BME280;59568;52.128;5.434;2022-10-29T03:07:23;102195.69;;;10.73;91.53
71716;BME280;59568;52.128;5.434;2022-10-29T03:09:50;102192.81;;;10.75;91.40
71716;BME280;59568;52.128;5.434;2022-10-29T03:12:17;102192.00;;;10.74;91.79
71716;BME280;59568;52.128;5.434;2022-10-29T03:14:43;102198.34;;;10.78;92.04
71716;BME280;59568;52.128;5.434;2022-10-29T03:17:10;102194.66;;;10.79;92.07
71716;BME280;59568;52.128;5.434;2022-10-29T03:19:37;102186.81;;;10.79;91.94
71716;BME280;59568;52.128;5.434;2022-10-29T03:22:04;102188.94;;;10.83;92.06
71716;BME280;59568;52.128;5.434;2022-10-29T03:24:31;102183.97;;;10.86;92.01
71716;BME280;59568;52.128;5.434;2022-10-29T03:26:57;102185.81;;;10.86;92.23
71716;BME280;59568;52.128;5.434;2022-10-29T03:29:24;102200.19;;;10.88;92.24
71716;BME280;59568;52.128;5.434;2022-10-29T03:31:51;102202.56;;;10.90;92.47
71716;BME280;59568;52.128;5.434;2022-10-29T03:34:18;102214.09;;;10.89;92.60
71716;BME280;59568;52.128;5.434;2022-10-29T03:36:45;102207.78;;;10.90;92.58
71716;BME280;59568;52.128;5.434;2022-10-29T03:39:12;102207.84;;;10.95;92.71
71716;BME280;59568;52.128;5.434;2022-10-29T03:41:39;102209.41;;;10.96;92.64
71716;BME280;59568;52.128;5.434;2022-10-29T03:44:06;102218.81;;;10.97;92.66
71716;BME280;59568;52.128;5.434;2022-10-29T03:46:33;102205.75;;;10.97;92.65
71716;BME280;59568;52.128;5.434;2022-10-29T03:48:59;102208.91;;;10.99;92.76
71716;BME280;59568;52.128;5.434;2022-10-29T03:51:26;102215.69;;;11.00;92.64
71716;BME280;59568;52.128;5.434;2022-10-29T03:53:53;102217.53;;;10.99;92.92
71716;BME280;59568;52.128;5.434;2022-10-29T03:56:20;102201.84;;;10.99;92.99
71716;BME280;59568;52.128;5.434;2022-10-29T03:58:47;102202.06;;;10.98;93.04
71716;BME280;59568;52.128;5.434;2022-10-29T04:01:14;102201.31;;;10.97;93.10
71716;BME280;59568;52.128;5.434;2022-10-29T04:03:41;102201.06;;;10.99;93.41
71716;BME280;59568;52.128;5.434;2022-10-29T04:06:11;102201.84;;;10.99;93.29
71716;BME280;59568;52.128;5.434;2022-10-29T04:08:38;102203.13;;;10.97;93.20
71716;BME280;59568;52.128;5.434;2022-10-29T04:11:05;102208.38;;;11.02;93.15
71716;BME280;59568;52.128;5.434;2022-10-29T04:13:33;102203.16;;;11.02;92.97
71716;BME280;59568;52.128;5.434;2022-10-29T04:16:00;102193.75;;;11.01;92.91
71716;BME280;59568;52.128;5.434;2022-10-29T04:18:27;102191.13;;;11.01;93.05
71716;BME280;59568;52.128;5.434;2022-10-29T04:20:58;102190.06;;;10.97;93.00
71716;BME280;59568;52.128;5.434;2022-10-29T04:23:45;102188.22;;;10.97;93.15
71716;BME280;59568;52.128;5.434;2022-10-29T04:26:34;102184.56;;;10.98;92.85
71716;BME280;59568;52.128;5.434;2022-10-29T04:29:20;102181.16;;;10.98;92.99
71716;BME280;59568;52.128;5.434;2022-10-29T04:31:47;102181.16;;;10.98;92.98
71716;BME280;59568;52.128;5.434;2022-10-29T04:34:14;102187.97;;;10.99;92.72
71716;BME280;59568;52.128;5.434;2022-10-29T04:36:41;102177.50;;;10.99;92.95
71716;BME280;59568;52.128;5.434;2022-10-29T04:39:08;102171.75;;;10.97;92.97
71716;BME280;59568;52.128;5.434;2022-10-29T04:41:35;102175.69;;;10.99;93.11
71716;BME280;59568;52.128;5.434;2022-10-29T04:44:02;102174.13;;;11.04;93.24
71716;BME280;59568;52.128;5.434;2022-10-29T04:46:29;102180.13;;;11.04;93.30
71716;BME280;59568;52.128;5.434;2022-10-29T04:48:56;102184.59;;;11.04;93.11
71716;BME280;59568;52.128;5.434;2022-10-29T04:51:24;102177.00;;;11.02;93.28
71716;BME280;59568;52.128;5.434;2022-10-29T04:53:51;102175.16;;;11.03;93.02
71716;BME280;59568;52.128;5.434;2022-10-29T04:56:18;102168.59;;;11.00;92.79
71716;BME280;59568;52.128;5.434;2022-10-29T04:58:45;102167.84;;;10.99;92.95
71716;BME280;59568;52.128;5.434;2022-10-29T05:01:12;102165.47;;;10.98;92.78
71716;BME280;59568;52.128;5.434;2022-10-29T05:03:39;102158.69;;;10.97;92.68
71716;BME280;59568;52.128;5.434;2022-10-29T05:06:06;102164.94;;;10.96;92.54
71716;BME280;59568;52.128;5.434;2022-10-29T05:08:33;102155.53;;;10.95;92.46
71716;BME280;59568;52.128;5.434;2022-10-29T05:11:01;102159.16;;;10.94;92.61
71716;BME280;59568;52.128;5.434;2022-10-29T05:13:29;102156.56;;;10.94;92.65
71716;BME280;59568;52.128;5.434;2022-10-29T05:15:56;102154.72;;;10.94;92.73
71716;BME280;59568;52.128;5.434;2022-10-29T05:18:23;102151.06;;;10.95;92.57
71716;BME280;59568;52.128;5.434;2022-10-29T05:20:54;102153.44;;;10.97;92.98
71716;BME280;59568;52.128;5.434;2022-10-29T05:23:22;102146.13;;;10.99;92.97
71716;BME280;59568;52.128;5.434;2022-10-29T05:25:49;102133.59;;;11.01;93.00
71716;BME280;59568;52.128;5.434;2022-10-29T05:28:19;102126.25;;;11.03;93.12
71716;BME280;59568;52.128;5.434;2022-10-29T05:30:48;102129.41;;;11.05;93.14
71716;BME280;59568;52.128;5.434;2022-10-29T05:33:17;102132.56;;;11.07;93.06
71716;BME280;59568;52.128;5.434;2022-10-29T05:35:44;102135.69;;;11.09;93.17
71716;BME280;59568;52.128;5.434;2022-10-29T05:38:12;102133.63;;;11.11;93.08
71716;BME280;59568;52.128;5.434;2022-10-29T05:40:40;102136.75;;;11.13;92.85
71716;BME280;59568;52.128;5.434;2022-10-29T05:43:08;102134.16;;;11.13;92.96
71716;BME280;59568;52.128;5.434;2022-10-29T05:45:35;102133.09;;;11.14;93.04
71716;BME280;59568;52.128;5.434;2022-10-29T05:48:03;102138.84;;;11.16;93.09
71716;BME280;59568;52.128;5.434;2022-10-29T05:50:31;102136.22;;;11.16;93.12
71716;BME280;59568;52.128;5.434;2022-10-29T05:52:59;102136.22;;;11.16;93.33
71716;BME280;59568;52.128;5.434;2022-10-29T05:55:27;102140.44;;;11.17;93.34
71716;BME280;59568;52.128;5.434;2022-10-29T05:57:58;102128.91;;;11.18;93.46
71716;BME280;59568;52.128;5.434;2022-10-29T06:00:28;102131.03;;;11.22;93.59
71716;BME280;59568;52.128;5.434;2022-10-29T06:02:55;102130.78;;;11.23;93.41
71716;BME280;59568;52.128;5.434;2022-10-29T06:05:23;102128.69;;;11.25;93.40
71716;BME280;59568;52.128;5.434;2022-10-29T06:07:57;102126.84;;;11.26;93.41
71716;BME280;59568;52.128;5.434;2022-10-29T06:10:27;102121.38;;;11.32;93.60
71716;BME280;59568;52.128;5.434;2022-10-29T06:12:54;102119.56;;;11.33;93.50
71716;BME280;59568;52.128;5.434;2022-10-29T06:15:21;102132.09;;;11.36;93.61
71716;BME280;59568;52.128;5.434;2022-10-29T06:17:48;102128.19;;;11.38;93.53
71716;BME280;59568;52.128;5.434;2022-10-29T06:20:18;102131.31;;;11.40;93.72
71716;BME280;59568;52.128;5.434;2022-10-29T06:22:46;102143.66;;;11.45;94.02
71716;BME280;59568;52.128;5.434;2022-10-29T06:25:13;102137.38;;;11.46;93.84
71716;BME280;59568;52.128;5.434;2022-10-29T06:27:40;102132.66;;;11.48;93.96
71716;BME280;59568;52.128;5.434;2022-10-29T06:30:07;102124.81;;;11.48;94.09
71716;BME280;59568;52.128;5.434;2022-10-29T06:32:34;102120.09;;;11.50;93.75
71716;BME280;59568;52.128;5.434;2022-10-29T06:35:01;102125.31;;;11.50;93.86
71716;BME280;59568;52.128;5.434;2022-10-29T06:37:28;102124.56;;;11.50;93.70
71716;BME280;59568;52.128;5.434;2022-10-29T06:39:58;102123.22;;;11.52;93.82
71716;BME280;59568;52.128;5.434;2022-10-29T06:42:25;102124.81;;;11.53;93.77
71716;BME280;59568;52.128;5.434;2022-10-29T06:44:52;102129.00;;;11.54;93.78
71716;BME280;59568;52.128;5.434;2022-10-29T06:47:19;102118.81;;;11.58;93.89
71716;BME280;59568;52.128;5.434;2022-10-29T06:49:46;102114.88;;;11.60;93.95
71716;BME280;59568;52.128;5.434;2022-10-29T06:52:12;102115.69;;;11.61;94.05
71716;BME280;59568;52.128;5.434;2022-10-29T06:54:39;102109.91;;;11.64;93.98
71716;BME280;59568;52.128;5.434;2022-10-29T06:57:06;102098.41;;;11.65;93.96
71716;BME280;59568;52.128;5.434;2022-10-29T06:59:33;102096.03;;;11.69;93.95
71716;BME280;59568;52.128;5.434;2022-10-29T07:02:00;102088.69;;;11.71;94.09
71716;BME280;59568;52.128;5.434;2022-10-29T07:04:27;102089.22;;;11.73;93.89
71716;BME280;59568;52.128;5.434;2022-10-29T07:06:54;102099.69;;;11.78;93.88
71716;BME280;59568;52.128;5.434;2022-10-29T07:09:21;102099.16;;;11.81;94.00
71716;BME280;59568;52.128;5.434;2022-10-29T07:11:47;102088.16;;;11.84;93.94
71716;BME280;59568;52.128;5.434;2022-10-29T07:14:14;102096.06;;;11.89;94.17
71716;BME280;59568;52.128;5.434;2022-10-29T07:16:41;102095.03;;;11.95;94.18
71716;BME280;59568;52.128;5.434;2022-10-29T07:19:08;102098.41;;;12.01;94.59
71716;BME280;59568;52.128;5.434;2022-10-29T07:21:35;102096.56;;;12.07;94.49
71716;BME280;59568;52.128;5.434;2022-10-29T07:24:02;102095.78;;;12.11;94.69
71716;BME280;59568;52.128;5.434;2022-10-29T07:26:29;102098.38;;;12.16;94.87
71716;BME280;59568;52.128;5.434;2022-10-29T07:28:56;102094.44;;;12.24;95.21
71716;BME280;59568;52.128;5.434;2022-10-29T07:31:23;102100.19;;;12.31;95.22
71716;BME280;59568;52.128;5.434;2022-10-29T07:33:50;102110.16;;;12.39;95.34
71716;BME280;59568;52.128;5.434;2022-10-29T07:36:17;102099.38;;;12.46;95.74
71716;BME280;59568;52.128;5.434;2022-10-29T07:38:45;102099.59;;;12.55;95.74
71716;BME280;59568;52.128;5.434;2022-10-29T07:41:11;102096.44;;;12.63;95.80
71716;BME280;59568;52.128;5.434;2022-10-29T07:43:38;102094.31;;;12.70;95.89
71716;BME280;59568;52.128;5.434;2022-10-29T07:46:05;102094.78;;;12.77;95.94
71716;BME280;59568;52.128;5.434;2022-10-29T07:48:33;102106.81;;;12.89;96.49
71716;BME280;59568;52.128;5.434;2022-10-29T07:51:00;102105.72;;;13.00;96.30
71716;BME280;59568;52.128;5.434;2022-10-29T07:53:27;102107.22;;;13.11;96.49
71716;BME280;59568;52.128;5.434;2022-10-29T07:55:57;102108.25;;;13.21;96.25
71716;BME280;59568;52.128;5.434;2022-10-29T07:58:24;102109.50;;;13.28;96.62
71716;BME280;59568;52.128;5.434;2022-10-29T08:00:51;102106.59;;;13.35;96.47
71716;BME280;59568;52.128;5.434;2022-10-29T08:03:18;102103.91;;;13.45;96.58
71716;BME280;59568;52.128;5.434;2022-10-29T08:05:45;102092.78;;;13.58;96.81
71716;BME280;59568;52.128;5.434;2022-10-29T08:08:22;102096.34;;;13.73;96.80
71716;BME280;59568;52.128;5.434;2022-10-29T08:10:49;102099.41;;;13.85;96.94
71716;BME280;59568;52.128;5.434;2022-10-29T08:13:16;102087.50;;;13.93;96.98
71716;BME280;59568;52.128;5.434;2022-10-29T08:15:45;102094.53;;;14.03;96.92
71716;BME280;59568;52.128;5.434;2022-10-29T08:18:16;102093.63;;;14.12;96.95
71716;BME280;59568;52.128;5.434;2022-10-29T08:20:43;102078.34;;;14.14;96.73
71716;BME280;59568;52.128;5.434;2022-10-29T08:23:12;102077.53;;;14.19;96.58
71716;BME280;59568;52.128;5.434;2022-10-29T08:25:40;102077.69;;;14.28;96.70
71716;BME280;59568;52.128;5.434;2022-10-29T08:28:13;102075.53;;;14.35;96.50
71716;BME280;59568;52.128;5.434;2022-10-29T08:30:41;102087.78;;;14.45;96.57
71716;BME280;59568;52.128;5.434;2022-10-29T08:33:09;102079.53;;;14.51;96.43
71716;BME280;59568;52.128;5.434;2022-10-29T08:35:36;102077.69;;;14.57;96.31
71716;BME280;59568;52.128;5.434;2022-10-29T08:38:03;102075.47;;;14.64;96.23
71716;BME280;59568;52.128;5.434;2022-10-29T08:46:20;102081.75;;;15.06;96.12
71716;BME280;59568;52.128;5.434;2022-10-29T08:48:54;102089.72;;;15.20;96.17
71716;BME280;59568;52.128;5.434;2022-10-29T08:51:28;102089.56;;;15.30;95.79
71716;BME280;59568;52.128;5.434;2022-10-29T08:53:56;102073.63;;;15.41;95.75
71716;BME280;59568;52.128;5.434;2022-10-29T08:56:57;102064.97;;;15.54;95.42
71716;BME280;59568;52.128;5.434;2022-10-29T08:59:28;102078.69;;;15.70;95.40
71716;BME280;59568;52.128;5.434;2022-10-29T09:01:57;102081.69;;;15.82;95.14
71716;BME280;59568;52.128;5.434;2022-10-29T09:04:33;102083.63;;;15.90;94.93
71716;BME280;59568;52.128;5.434;2022-10-29T09:13:44;102092.66;;;16.17;94.33
71716;BME280;59568;52.128;5.434;2022-10-29T09:19:40;102090.09;;;16.26;94.31
71716;BME280;59568;52.128;5.434;2022-10-29T09:27:23;102078.19;;;16.28;93.46
71716;BME280;59568;52.128;5.434;2022-10-29T09:32:34;102065.38;;;16.35;92.80
71716;BME280;59568;52.128;5.434;2022-10-29T09:35:08;102055.31;;;16.37;92.53
71716;BME280;59568;52.128;5.434;2022-10-29T09:40:36;102048.09;;;16.43;91.92
71716;BME280;59568;52.128;5.434;2022-10-29T09:43:27;102047.69;;;16.50;91.94
71716;BME280;59568;52.128;5.434;2022-10-29T09:46:21;102051.81;;;16.56;91.94
71716;BME280;59568;52.128;5.434;2022-10-29T09:49:02;102039.88;;;16.58;91.83
71716;BME280;59568;52.128;5.434;2022-10-29T09:52:38;102032.44;;;16.61;91.56
71716;BME280;59568;52.128;5.434;2022-10-29T09:54:38;102035.38;;;16.59;91.48
71716;BME280;59568;52.128;5.434;2022-10-29T09:57:06;102029.03;;;16.60;91.01
71716;BME280;59568;52.128;5.434;2022-10-29T09:59:45;102026.88;;;16.62;90.86
71716;BME280;59568;52.128;5.434;2022-10-29T10:02:27;102022.06;;;16.64;90.68
71716;BME280;59568;52.128;5.434;2022-10-29T10:05:03;102012.59;;;16.63;90.42
71716;BME280;59568;52.128;5.434;2022-10-29T10:07:30;101994.88;;;16.64;89.98
71716;BME280;59568;52.128;5.434;2022-10-29T10:09:59;101983.56;;;16.63;89.79
71716;BME280;59568;52.128;5.434;2022-10-29T10:20:40;102006.16;;;16.92;90.24
71716;BME280;59568;52.128;5.434;2022-10-29T10:25:52;102017.34;;;17.11;90.32
71716;BME280;59568;52.128;5.434;2022-10-29T10:28:29;102013.97;;;17.20;89.78
71716;BME280;59568;52.128;5.434;2022-10-29T10:33:31;102016.28;;;17.44;88.83
71716;BME280;59568;52.128;5.434;2022-10-29T10:36:07;102010.56;;;17.50;88.64
71716;BME280;59568;52.128;5.434;2022-10-29T10:38:39;102006.22;;;17.54;88.43
71716;BME280;59568;52.128;5.434;2022-10-29T10:41:09;101993.38;;;17.62;88.04
71716;BME280;59568;52.128;5.434;2022-10-29T10:43:41;102000.06;;;17.68;87.63
71716;BME280;59568;52.128;5.434;2022-10-29T10:46:22;102004.16;;;17.83;88.04
71716;BME280;59568;52.128;5.434;2022-10-29T10:49:03;102008.44;;;17.92;87.88
71716;BME280;59568;52.128;5.434;2022-10-29T10:51:52;102000.38;;;17.98;87.77
71716;BME280;59568;52.128;5.434;2022-10-29T10:54:37;101996.81;;;18.11;87.76
71716;BME280;59568;52.128;5.434;2022-10-29T11:00:05;101987.19;;;18.15;86.43
71716;BME280;59568;52.128;5.434;2022-10-29T11:02:55;101979.38;;;18.10;85.26
71716;BME280;59568;52.128;5.434;2022-10-29T11:05:36;101977.69;;;18.14;85.29
71716;BME280;59568;52.128;5.434;2022-10-29T11:11:05;101966.19;;;18.36;85.96
71716;BME280;59568;52.128;5.434;2022-10-29T11:13:38;101964.34;;;18.54;85.64
71716;BME280;59568;52.128;5.434;2022-10-29T11:16:15;101966.66;;;18.64;84.66
71716;BME280;59568;52.128;5.434;2022-10-29T11:21:37;101981.31;;;18.70;84.77
71716;BME280;59568;52.128;5.434;2022-10-29T11:24:08;101990.94;;;19.01;84.43
71716;BME280;59568;52.128;5.434;2022-10-29T11:26:57;101988.75;;;19.21;83.53
71716;BME280;59568;52.128;5.434;2022-10-29T11:35:01;101983.28;;;19.17;83.58
71716;BME280;59568;52.128;5.434;2022-10-29T11:40:57;101977.56;;;19.06;81.91
71716;BME280;59568;52.128;5.434;2022-10-29T11:43:31;101967.56;;;19.03;81.57
71716;BME280;59568;52.128;5.434;2022-10-29T11:46:21;101956.81;;;19.08;82.36
71716;BME280;59568;52.128;5.434;2022-10-29T11:49:01;101948.41;;;19.06;82.20
71716;BME280;59568;52.128;5.434;2022-10-29T11:51:53;101951.69;;;19.03;82.71
71716;BME280;59568;52.128;5.434;2022-10-29T11:57:10;101933.91;;;19.12;82.42
71716;BME280;59568;52.128;5.434;2022-10-29T12:11:26;101921.19;;;19.74;81.99
71716;BME280;59568;52.128;5.434;2022-10-29T12:22:17;101914.34;;;20.15;81.35
71716;BME280;59568;52.128;5.434;2022-10-29T12:30:32;101912.94;;;20.39;79.57
71716;BME280;59568;52.128;5.434;2022-10-29T12:33:15;101904.56;;;20.49;79.29
71716;BME280;59568;52.128;5.434;2022-10-29T12:35:59;101909.63;;;20.75;79.82
71716;BME280;59568;52.128;5.434;2022-10-29T12:39:02;101902.72;;;21.20;79.85
71716;BME280;59568;52.128;5.434;2022-10-29T12:44:11;101898.41;;;21.27;76.60
71716;BME280;59568;52.128;5.434;2022-10-29T12:46:45;101899.84;;;21.25;74.76
71716;BME280;59568;52.128;5.434;2022-10-29T12:49:33;101900.06;;;21.20;75.37
71716;BME280;59568;52.128;5.434;2022-10-29T12:54:58;101892.16;;;20.99;76.05
71716;BME280;59568;52.128;5.434;2022-10-29T12:57:29;101898.03;;;20.92;76.50
71716;BME280;59568;52.128;5.434;2022-10-29T12:59:58;101895.50;;;20.83;75.62
71716;BME280;59568;52.128;5.434;2022-10-29T13:02:43;101888.91;;;20.68;76.72
71716;BME280;59568;52.128;5.434;2022-10-29T13:05:12;101882.31;;;20.53;77.21
71716;BME280;59568;52.128;5.434;2022-10-29T13:13:02;101863.72;;;20.20;77.49
71716;BME280;59568;52.128;5.434;2022-10-29T13:15:57;101872.22;;;20.13;78.36
71716;BME280;59568;52.128;5.434;2022-10-29T13:21:07;101864.97;;;20.02;79.27
71716;BME280;59568;52.128;5.434;2022-10-29T13:23:35;101866.78;;;20.10;78.96
71716;BME280;59568;52.128;5.434;2022-10-29T13:26:07;101860.63;;;20.18;78.68
71716;BME280;59568;52.128;5.434;2022-10-29T13:35:57;101848.28;;;20.22;79.15
71716;BME280;59568;52.128;5.434;2022-10-29T13:44:15;101843.00;;;20.34;79.26
71716;BME280;59568;52.128;5.434;2022-10-29T13:47:02;101839.66;;;20.25;79.32
71716;BME280;59568;52.128;5.434;2022-10-29T13:49:32;101833.44;;;20.21;79.24
71716;BME280;59568;52.128;5.434;2022-10-29T13:52:15;101822.13;;;20.12;79.55
71716;BME280;59568;52.128;5.434;2022-10-29T13:54:49;101828.28;;;20.04;80.15
71716;BME280;59568;52.128;5.434;2022-10-29T14:03:00;101824.78;;;20.12;81.04
71716;BME280;59568;52.128;5.434;2022-10-29T14:05:41;101811.84;;;20.10;80.93
71716;BME280;59568;52.128;5.434;2022-10-29T14:08:12;101819.69;;;20.07;80.51
71716;BME280;59568;52.128;5.434;2022-10-29T14:11:26;101813.59;;;20.06;80.75
71716;BME280;59568;52.128;5.434;2022-10-29T14:13:59;101814.56;;;20.02;80.30
71716;BME280;59568;52.128;5.434;2022-10-29T14:16:31;101811.47;;;20.00;80.82
71716;BME280;59568;52.128;5.434;2022-10-29T14:19:19;101818.06;;;19.93;81.28
71716;BME280;59568;52.128;5.434;2022-10-29T14:21:46;101814.06;;;19.87;81.26
71716;BME280;59568;52.128;5.434;2022-10-29T14:24:15;101811.63;;;19.82;81.42
71716;BME280;59568;52.128;5.434;2022-10-29T14:26:43;101817.56;;;19.79;81.44
71716;BME280;59568;52.128;5.434;2022-10-29T14:29:18;101821.97;;;19.75;81.83
71716;BME280;59568;52.128;5.434;2022-10-29T14:32:05;101818.09;;;19.72;81.77
71716;BME280;59568;52.128;5.434;2022-10-29T14:34:33;101816.34;;;19.68;81.75
71716;BME280;59568;52.128;5.434;2022-10-29T14:37:30;101815.91;;;19.66;81.92
71716;BME280;59568;52.128;5.434;2022-10-29T14:40:05;101812.81;;;19.64;82.36
71716;BME280;59568;52.128;5.434;2022-10-29T14:42:39;101818.09;;;19.64;82.47
71716;BME280;59568;52.128;5.434;2022-10-29T14:45:37;101816.13;;;19.61;82.50
71716;BME280;59568;52.128;5.434;2022-10-29T14:48:10;101816.44;;;19.59;82.49
71716;BME280;59568;52.128;5.434;2022-10-29T14:50:47;101813.63;;;19.55;82.53
71716;BME280;59568;52.128;5.434;2022-10-29T14:53:33;101815.84;;;19.53;82.66
71716;BME280;59568;52.128;5.434;2022-10-29T14:56:07;101820.22;;;19.49;82.94
71716;BME280;59568;52.128;5.434;2022-10-29T14:58:36;101812.03;;;19.42;82.76
71716;BME280;59568;52.128;5.434;2022-10-29T15:01:12;101811.28;;;19.33;82.92
71716;BME280;59568;52.128;5.434;2022-10-29T15:03:40;101805.09;;;19.29;83.02
71716;BME280;59568;52.128;5.434;2022-10-29T15:06:12;101799.66;;;19.25;83.18
71716;BME280;59568;52.128;5.434;2022-10-29T15:08:42;101810.13;;;19.22;83.34
71716;BME280;59568;52.128;5.434;2022-10-29T15:14:04;101802.53;;;19.11;83.24
71716;BME280;59568;52.128;5.434;2022-10-29T15:16:31;101804.72;;;19.09;83.24
71716;BME280;59568;52.128;5.434;2022-10-29T15:19:12;101805.69;;;19.05;83.52
71716;BME280;59568;52.128;5.434;2022-10-29T15:21:44;101793.41;;;19.00;83.82
71716;BME280;59568;52.128;5.434;2022-10-29T15:24:23;101805.41;;;18.98;83.60
71716;BME280;59568;52.128;5.434;2022-10-29T15:26:56;101790.16;;;18.94;83.69
71716;BME280;59568;52.128;5.434;2022-10-29T15:29:26;101791.09;;;18.90;83.52
71716;BME280;59568;52.128;5.434;2022-10-29T15:32:01;101793.63;;;18.86;83.64
71716;BME280;59568;52.128;5.434;2022-10-29T15:34:33;101787.41;;;18.82;83.77
71716;BME280;59568;52.128;5.434;2022-10-29T15:37:23;101787.88;;;18.75;84.02
71716;BME280;59568;52.128;5.434;2022-10-29T15:40:15;101775.44;;;18.67;84.14